sensor_id;sensor_type;location;lat;lon;timestamp;P1;durP1;ratioP1;P2;durP2;ratioP2
11817;SDS011;5966;52.402;5.322;2023-03-01T00:01:50;8.73;;;7.40;;
11817;SDS011;5966;52.402;5.322;2023-03-01T00:04:18;9.10;;;7.13;;
11817;SDS011;5966;52.402;5.322;2023-03-01T00:06:48;8.80;;;7.40;;
11817;SDS011;5966;52.402;5.322;2023-03-01T00:09:16;10.37;;;7.07;;
11817;SDS011;5966;52.402;5.322;2023-03-01T00:11:44;8.53;;;7.27;;
11817;SDS011;5966;52.402;5.322;2023-03-01T00:14:12;8.10;;;6.37;;
11817;SDS011;5966;52.402;5.322;2023-03-01T00:16:42;7.77;;;6.97;;
11817;SDS011;5966;52.402;5.322;2023-03-01T00:19:12;9.17;;;7.20;;
11817;SDS011;5966;52.402;5.322;2023-03-01T00:21:41;9.13;;;7.20;;
11817;SDS011;5966;52.402;5.322;2023-03-01T00:24:11;10.70;;;7.57;;
11817;SDS011;5966;52.402;5.322;2023-03-01T00:26:39;7.83;;;7.03;;
11817;SDS011;5966;52.402;5.322;2023-03-01T00:29:07;8.47;;;7.20;;
11817;SDS011;5966;52.402;5.322;2023-03-01T00:31:35;9.37;;;7.20;;
11817;SDS011;5966;52.402;5.322;2023-03-01T00:34:03;8.73;;;6.60;;
11817;SDS011;5966;52.402;5.322;2023-03-01T00:36:33;9.80;;;6.90;;
11817;SDS011;5966;52.402;5.322;2023-03-01T00:39:04;11.53;;;7.53;;
11817;SDS011;5966;52.402;5.322;2023-03-01T00:41:34;8.30;;;7.23;;
11817;SDS011;5966;52.402;5.322;2023-03-01T00:44:02;9.77;;;7.83;;
11817;SDS011;5966;52.402;5.322;2023-03-01T00:46:31;8.07;;;7.27;;
11817;SDS011;5966;52.402;5.322;2023-03-01T00:49:01;10.10;;;7.50;;
11817;SDS011;5966;52.402;5.322;2023-03-01T00:51:31;8.63;;;7.17;;
11817;SDS011;5966;52.402;5.322;2023-03-01T00:54:01;8.23;;;7.20;;
11817;SDS011;5966;52.402;5.322;2023-03-01T00:56:30;10.90;;;7.40;;
11817;SDS011;5966;52.402;5.322;2023-03-01T00:59:00;14.23;;;9.37;;
11817;SDS011;5966;52.402;5.322;2023-03-01T01:01:31;10.77;;;7.60;;
11817;SDS011;5966;52.402;5.322;2023-03-01T01:04:02;11.43;;;7.97;;
11817;SDS011;5966;52.402;5.322;2023-03-01T01:06:34;9.03;;;7.50;;
11817;SDS011;5966;52.402;5.322;2023-03-01T01:09:06;10.80;;;8.10;;
11817;SDS011;5966;52.402;5.322;2023-03-01T01:11:46;8.73;;;7.03;;
11817;SDS011;5966;52.402;5.322;2023-03-01T01:14:20;8.73;;;7.50;;
11817;SDS011;5966;52.402;5.322;2023-03-01T01:16:52;10.43;;;7.47;;
11817;SDS011;5966;52.402;5.322;2023-03-01T01:19:27;9.10;;;7.57;;
11817;SDS011;5966;52.402;5.322;2023-03-01T01:21:57;9.77;;;7.90;;
11817;SDS011;5966;52.402;5.322;2023-03-01T01:24:25;10.07;;;7.93;;
11817;SDS011;5966;52.402;5.322;2023-03-01T01:26:53;9.47;;;7.63;;
11817;SDS011;5966;52.402;5.322;2023-03-01T01:29:23;10.10;;;7.87;;
11817;SDS011;5966;52.402;5.322;2023-03-01T01:31:51;9.67;;;7.57;;
11817;SDS011;5966;52.402;5.322;2023-03-01T01:34:20;9.87;;;7.93;;
11817;SDS011;5966;52.402;5.322;2023-03-01T01:36:49;9.63;;;8.13;;
11817;SDS011;5966;52.402;5.322;2023-03-01T01:39:19;10.00;;;7.43;;
11817;SDS011;5966;52.402;5.322;2023-03-01T01:41:47;13.73;;;8.53;;
11817;SDS011;5966;52.402;5.322;2023-03-01T01:44:17;10.77;;;8.17;;
11817;SDS011;5966;52.402;5.322;2023-03-01T01:46:50;10.17;;;7.73;;
11817;SDS011;5966;52.402;5.322;2023-03-01T01:49:32;9.87;;;7.83;;
11817;SDS011;5966;52.402;5.322;2023-03-01T01:52:07;9.27;;;7.97;;
11817;SDS011;5966;52.402;5.322;2023-03-01T01:54:51;9.77;;;7.30;;
11817;SDS011;5966;52.402;5.322;2023-03-01T01:57:36;7.50;;;6.70;;
11817;SDS011;5966;52.402;5.322;2023-03-01T02:00:16;7.97;;;6.97;;
11817;SDS011;5966;52.402;5.322;2023-03-01T02:02:59;9.10;;;7.17;;
11817;SDS011;5966;52.402;5.322;2023-03-01T02:05:38;10.40;;;7.10;;
11817;SDS011;5966;52.402;5.322;2023-03-01T02:08:21;12.10;;;8.23;;
11817;SDS011;5966;52.402;5.322;2023-03-01T02:10:56;10.87;;;7.73;;
11817;SDS011;5966;52.402;5.322;2023-03-01T02:13:34;9.83;;;7.87;;
11817;SDS011;5966;52.402;5.322;2023-03-01T02:16:08;8.13;;;7.30;;
11817;SDS011;5966;52.402;5.322;2023-03-01T02:18:41;9.07;;;7.27;;
11817;SDS011;5966;52.402;5.322;2023-03-01T02:24:06;8.90;;;7.37;;
11817;SDS011;5966;52.402;5.322;2023-03-01T02:26:46;8.60;;;7.70;;
11817;SDS011;5966;52.402;5.322;2023-03-01T02:29:23;7.83;;;7.03;;
11817;SDS011;5966;52.402;5.322;2023-03-01T02:31:54;9.30;;;7.57;;
11817;SDS011;5966;52.402;5.322;2023-03-01T02:34:25;9.00;;;7.37;;
11817;SDS011;5966;52.402;5.322;2023-03-01T02:36:59;11.73;;;7.03;;
11817;SDS011;5966;52.402;5.322;2023-03-01T02:39:31;9.00;;;7.33;;
11817;SDS011;5966;52.402;5.322;2023-03-01T02:42:08;8.73;;;7.60;;
11817;SDS011;5966;52.402;5.322;2023-03-01T02:44:44;9.00;;;7.63;;
11817;SDS011;5966;52.402;5.322;2023-03-01T02:47:12;9.17;;;7.63;;
11817;SDS011;5966;52.402;5.322;2023-03-01T02:49:40;9.13;;;6.83;;
11817;SDS011;5966;52.402;5.322;2023-03-01T02:52:22;10.00;;;8.07;;
11817;SDS011;5966;52.402;5.322;2023-03-01T02:55:00;9.33;;;7.33;;
11817;SDS011;5966;52.402;5.322;2023-03-01T02:57:31;10.40;;;7.03;;
11817;SDS011;5966;52.402;5.322;2023-03-01T03:00:06;10.00;;;7.43;;
11817;SDS011;5966;52.402;5.322;2023-03-01T03:02:46;8.50;;;7.60;;
11817;SDS011;5966;52.402;5.322;2023-03-01T03:05:17;8.53;;;7.27;;
11817;SDS011;5966;52.402;5.322;2023-03-01T03:07:46;9.33;;;7.83;;
11817;SDS011;5966;52.402;5.322;2023-03-01T03:10:21;13.47;;;7.57;;
11817;SDS011;5966;52.402;5.322;2023-03-01T03:12:54;7.77;;;6.67;;
11817;SDS011;5966;52.402;5.322;2023-03-01T03:15:26;8.87;;;7.00;;
11817;SDS011;5966;52.402;5.322;2023-03-01T03:17:56;7.43;;;6.63;;
11817;SDS011;5966;52.402;5.322;2023-03-01T03:20:27;7.33;;;6.60;;
11817;SDS011;5966;52.402;5.322;2023-03-01T03:22:56;8.03;;;7.23;;
11817;SDS011;5966;52.402;5.322;2023-03-01T03:26:01;7.53;;;6.77;;
11817;SDS011;5966;52.402;5.322;2023-03-01T03:28:37;9.23;;;7.20;;
11817;SDS011;5966;52.402;5.322;2023-03-01T03:31:07;10.17;;;6.60;;
11817;SDS011;5966;52.402;5.322;2023-03-01T03:33:35;8.00;;;7.20;;
11817;SDS011;5966;52.402;5.322;2023-03-01T03:36:04;8.50;;;7.60;;
11817;SDS011;5966;52.402;5.322;2023-03-01T03:38:32;10.80;;;7.40;;
11817;SDS011;5966;52.402;5.322;2023-03-01T03:41:01;9.63;;;7.47;;
11817;SDS011;5966;52.402;5.322;2023-03-01T03:43:31;8.80;;;6.80;;
11817;SDS011;5966;52.402;5.322;2023-03-01T03:46:01;8.70;;;7.07;;
11817;SDS011;5966;52.402;5.322;2023-03-01T03:48:34;10.07;;;7.50;;
11817;SDS011;5966;52.402;5.322;2023-03-01T03:51:02;8.47;;;7.20;;
11817;SDS011;5966;52.402;5.322;2023-03-01T03:53:31;9.00;;;7.50;;
11817;SDS011;5966;52.402;5.322;2023-03-01T03:56:00;9.57;;;7.33;;
11817;SDS011;5966;52.402;5.322;2023-03-01T03:58:28;8.17;;;7.17;;
11817;SDS011;5966;52.402;5.322;2023-03-01T04:00:56;9.00;;;7.73;;
11817;SDS011;5966;52.402;5.322;2023-03-01T04:03:25;8.60;;;7.17;;
11817;SDS011;5966;52.402;5.322;2023-03-01T04:05:56;9.47;;;7.70;;
11817;SDS011;5966;52.402;5.322;2023-03-01T04:08:24;8.57;;;7.40;;
11817;SDS011;5966;52.402;5.322;2023-03-01T04:10:56;9.03;;;7.40;;
11817;SDS011;5966;52.402;5.322;2023-03-01T04:13:47;8.93;;;7.40;;
11817;SDS011;5966;52.402;5.322;2023-03-01T04:16:15;9.27;;;7.50;;
11817;SDS011;5966;52.402;5.322;2023-03-01T04:18:43;11.07;;;7.60;;
11817;SDS011;5966;52.402;5.322;2023-03-01T04:21:13;8.87;;;7.97;;
11817;SDS011;5966;52.402;5.322;2023-03-01T04:23:41;7.77;;;6.97;;
11817;SDS011;5966;52.402;5.322;2023-03-01T04:26:09;9.80;;;7.50;;
11817;SDS011;5966;52.402;5.322;2023-03-01T04:28:37;8.67;;;7.77;;
11817;SDS011;5966;52.402;5.322;2023-03-01T04:31:09;8.77;;;7.33;;
11817;SDS011;5966;52.402;5.322;2023-03-01T04:33:44;9.03;;;7.80;;
11817;SDS011;5966;52.402;5.322;2023-03-01T04:36:16;9.30;;;8.27;;
11817;SDS011;5966;52.402;5.322;2023-03-01T04:38:45;10.13;;;8.00;;
11817;SDS011;5966;52.402;5.322;2023-03-01T04:41:14;11.10;;;8.53;;
11817;SDS011;5966;52.402;5.322;2023-03-01T04:43:44;11.20;;;9.30;;
11817;SDS011;5966;52.402;5.322;2023-03-01T04:46:13;9.80;;;7.70;;
11817;SDS011;5966;52.402;5.322;2023-03-01T04:48:43;9.33;;;7.73;;
11817;SDS011;5966;52.402;5.322;2023-03-01T04:51:12;9.47;;;7.60;;
11817;SDS011;5966;52.402;5.322;2023-03-01T04:53:42;9.70;;;7.47;;
11817;SDS011;5966;52.402;5.322;2023-03-01T04:56:11;9.13;;;7.90;;
11817;SDS011;5966;52.402;5.322;2023-03-01T04:58:40;9.43;;;7.93;;
11817;SDS011;5966;52.402;5.322;2023-03-01T05:01:09;8.50;;;7.03;;
11817;SDS011;5966;52.402;5.322;2023-03-01T05:03:42;10.07;;;8.07;;
11817;SDS011;5966;52.402;5.322;2023-03-01T05:06:11;10.50;;;7.63;;
11817;SDS011;5966;52.402;5.322;2023-03-01T05:08:40;10.67;;;8.03;;
11817;SDS011;5966;52.402;5.322;2023-03-01T05:11:09;12.17;;;8.23;;
11817;SDS011;5966;52.402;5.322;2023-03-01T05:13:38;10.10;;;7.87;;
11817;SDS011;5966;52.402;5.322;2023-03-01T05:16:06;8.80;;;7.80;;
11817;SDS011;5966;52.402;5.322;2023-03-01T05:18:38;9.97;;;8.00;;
11817;SDS011;5966;52.402;5.322;2023-03-01T05:21:08;9.93;;;8.60;;
11817;SDS011;5966;52.402;5.322;2023-03-01T05:23:37;9.17;;;7.67;;
11817;SDS011;5966;52.402;5.322;2023-03-01T05:26:07;11.23;;;8.83;;
11817;SDS011;5966;52.402;5.322;2023-03-01T05:28:52;9.47;;;8.03;;
11817;SDS011;5966;52.402;5.322;2023-03-01T05:31:24;11.43;;;8.70;;
11817;SDS011;5966;52.402;5.322;2023-03-01T05:33:52;11.63;;;9.23;;
11817;SDS011;5966;52.402;5.322;2023-03-01T05:36:20;10.53;;;8.63;;
11817;SDS011;5966;52.402;5.322;2023-03-01T05:38:48;9.37;;;7.80;;
11817;SDS011;5966;52.402;5.322;2023-03-01T05:41:18;11.27;;;8.90;;
11817;SDS011;5966;52.402;5.322;2023-03-01T05:43:46;10.93;;;8.57;;
11817;SDS011;5966;52.402;5.322;2023-03-01T05:46:14;10.57;;;8.70;;
11817;SDS011;5966;52.402;5.322;2023-03-01T05:48:42;13.07;;;8.80;;
11817;SDS011;5966;52.402;5.322;2023-03-01T05:51:10;12.33;;;9.30;;
11817;SDS011;5966;52.402;5.322;2023-03-01T05:53:38;12.47;;;9.20;;
11817;SDS011;5966;52.402;5.322;2023-03-01T05:56:06;10.83;;;8.60;;
11817;SDS011;5966;52.402;5.322;2023-03-01T05:58:36;12.50;;;8.53;;
11817;SDS011;5966;52.402;5.322;2023-03-01T06:01:05;10.97;;;9.60;;
11817;SDS011;5966;52.402;5.322;2023-03-01T06:03:38;12.00;;;9.27;;
11817;SDS011;5966;52.402;5.322;2023-03-01T06:06:05;11.87;;;8.77;;
11817;SDS011;5966;52.402;5.322;2023-03-01T06:08:33;11.67;;;8.30;;
11817;SDS011;5966;52.402;5.322;2023-03-01T06:11:01;10.90;;;8.67;;
11817;SDS011;5966;52.402;5.322;2023-03-01T06:13:29;10.30;;;8.80;;
11817;SDS011;5966;52.402;5.322;2023-03-01T06:15:59;10.83;;;9.37;;
11817;SDS011;5966;52.402;5.322;2023-03-01T06:18:27;13.37;;;9.30;;
11817;SDS011;5966;52.402;5.322;2023-03-01T06:20:55;12.20;;;9.50;;
11817;SDS011;5966;52.402;5.322;2023-03-01T06:23:23;16.10;;;11.40;;
11817;SDS011;5966;52.402;5.322;2023-03-01T06:25:52;24.90;;;13.17;;
11817;SDS011;5966;52.402;5.322;2023-03-01T06:28:20;19.50;;;13.13;;
11817;SDS011;5966;52.402;5.322;2023-03-01T06:30:49;19.97;;;12.50;;
11817;SDS011;5966;52.402;5.322;2023-03-01T06:33:19;20.10;;;11.97;;
11817;SDS011;5966;52.402;5.322;2023-03-01T06:35:48;22.10;;;12.27;;
11817;SDS011;5966;52.402;5.322;2023-03-01T06:38:16;32.80;;;12.07;;
11817;SDS011;5966;52.402;5.322;2023-03-01T06:40:45;30.27;;;11.13;;
11817;SDS011;5966;52.402;5.322;2023-03-01T06:43:18;21.43;;;12.20;;
11817;SDS011;5966;52.402;5.322;2023-03-01T06:45:47;28.63;;;12.10;;
11817;SDS011;5966;52.402;5.322;2023-03-01T06:48:14;26.10;;;12.10;;
11817;SDS011;5966;52.402;5.322;2023-03-01T06:50:44;20.17;;;11.60;;
11817;SDS011;5966;52.402;5.322;2023-03-01T06:53:12;15.90;;;11.73;;
11817;SDS011;5966;52.402;5.322;2023-03-01T06:55:40;19.37;;;12.70;;
11817;SDS011;5966;52.402;5.322;2023-03-01T06:58:08;19.47;;;12.03;;
11817;SDS011;5966;52.402;5.322;2023-03-01T07:00:37;18.73;;;12.23;;
11817;SDS011;5966;52.402;5.322;2023-03-01T07:03:07;18.17;;;11.73;;
11817;SDS011;5966;52.402;5.322;2023-03-01T07:05:36;13.43;;;11.50;;
11817;SDS011;5966;52.402;5.322;2023-03-01T07:08:05;21.17;;;11.57;;
11817;SDS011;5966;52.402;5.322;2023-03-01T07:10:33;16.03;;;10.97;;
11817;SDS011;5966;52.402;5.322;2023-03-01T07:13:01;18.87;;;12.20;;
11817;SDS011;5966;52.402;5.322;2023-03-01T07:15:29;20.57;;;12.20;;
11817;SDS011;5966;52.402;5.322;2023-03-01T07:17:58;14.17;;;11.90;;
11817;SDS011;5966;52.402;5.322;2023-03-01T07:20:26;18.97;;;11.53;;
11817;SDS011;5966;52.402;5.322;2023-03-01T07:22:55;12.40;;;11.03;;
11817;SDS011;5966;52.402;5.322;2023-03-01T07:25:26;16.30;;;11.10;;
11817;SDS011;5966;52.402;5.322;2023-03-01T07:27:53;14.53;;;12.03;;
11817;SDS011;5966;52.402;5.322;2023-03-01T07:30:21;12.47;;;11.07;;
11817;SDS011;5966;52.402;5.322;2023-03-01T07:32:52;16.03;;;12.27;;
11817;SDS011;5966;52.402;5.322;2023-03-01T07:35:21;15.77;;;11.37;;
11817;SDS011;5966;52.402;5.322;2023-03-01T07:37:49;14.00;;;11.73;;
11817;SDS011;5966;52.402;5.322;2023-03-01T07:40:17;18.70;;;11.80;;
11817;SDS011;5966;52.402;5.322;2023-03-01T07:42:46;18.90;;;11.63;;
11817;SDS011;5966;52.402;5.322;2023-03-01T07:45:15;18.60;;;12.07;;
11817;SDS011;5966;52.402;5.322;2023-03-01T07:47:43;16.00;;;11.77;;
11817;SDS011;5966;52.402;5.322;2023-03-01T07:50:10;17.70;;;12.40;;
11817;SDS011;5966;52.402;5.322;2023-03-01T07:52:39;20.00;;;12.00;;
11817;SDS011;5966;52.402;5.322;2023-03-01T07:55:08;15.10;;;11.83;;
11817;SDS011;5966;52.402;5.322;2023-03-01T07:57:36;14.67;;;12.47;;
11817;SDS011;5966;52.402;5.322;2023-03-01T08:00:07;14.30;;;12.23;;
11817;SDS011;5966;52.402;5.322;2023-03-01T08:02:37;13.63;;;11.80;;
11817;SDS011;5966;52.402;5.322;2023-03-01T08:05:06;14.17;;;11.60;;
11817;SDS011;5966;52.402;5.322;2023-03-01T08:07:35;13.87;;;11.63;;
11817;SDS011;5966;52.402;5.322;2023-03-01T08:10:03;13.73;;;11.83;;
11817;SDS011;5966;52.402;5.322;2023-03-01T08:12:32;13.10;;;11.57;;
11817;SDS011;5966;52.402;5.322;2023-03-01T08:15:00;13.23;;;11.63;;
11817;SDS011;5966;52.402;5.322;2023-03-01T08:17:29;15.17;;;12.40;;
11817;SDS011;5966;52.402;5.322;2023-03-01T08:19:57;14.57;;;11.73;;
11817;SDS011;5966;52.402;5.322;2023-03-01T08:22:25;14.57;;;12.20;;
11817;SDS011;5966;52.402;5.322;2023-03-01T08:24:53;14.03;;;11.70;;
11817;SDS011;5966;52.402;5.322;2023-03-01T08:27:21;13.00;;;11.53;;
11817;SDS011;5966;52.402;5.322;2023-03-01T08:29:50;13.40;;;11.30;;
11817;SDS011;5966;52.402;5.322;2023-03-01T08:32:18;14.80;;;12.13;;
11817;SDS011;5966;52.402;5.322;2023-03-01T08:34:48;14.90;;;11.80;;
11817;SDS011;5966;52.402;5.322;2023-03-01T08:37:16;14.03;;;11.80;;
11817;SDS011;5966;52.402;5.322;2023-03-01T08:39:44;12.97;;;11.50;;
11817;SDS011;5966;52.402;5.322;2023-03-01T08:42:12;13.57;;;11.47;;
11817;SDS011;5966;52.402;5.322;2023-03-01T08:44:40;14.43;;;11.60;;
11817;SDS011;5966;52.402;5.322;2023-03-01T08:47:11;13.20;;;11.70;;
11817;SDS011;5966;52.402;5.322;2023-03-01T08:49:39;13.87;;;11.57;;
11817;SDS011;5966;52.402;5.322;2023-03-01T08:52:08;13.93;;;11.80;;
11817;SDS011;5966;52.402;5.322;2023-03-01T08:54:36;13.40;;;11.17;;
11817;SDS011;5966;52.402;5.322;2023-03-01T08:57:04;12.07;;;10.17;;
11817;SDS011;5966;52.402;5.322;2023-03-01T08:59:32;13.20;;;9.93;;
11817;SDS011;5966;52.402;5.322;2023-03-01T09:02:03;13.17;;;10.77;;
11817;SDS011;5966;52.402;5.322;2023-03-01T09:04:31;10.50;;;9.40;;
11817;SDS011;5966;52.402;5.322;2023-03-01T09:06:59;12.07;;;9.93;;
11817;SDS011;5966;52.402;5.322;2023-03-01T09:09:29;10.70;;;9.30;;
11817;SDS011;5966;52.402;5.322;2023-03-01T09:11:57;15.63;;;10.17;;
11817;SDS011;5966;52.402;5.322;2023-03-01T09:14:25;13.40;;;10.30;;
11817;SDS011;5966;52.402;5.322;2023-03-01T09:16:53;12.37;;;9.57;;
11817;SDS011;5966;52.402;5.322;2023-03-01T09:19:21;14.17;;;10.30;;
11817;SDS011;5966;52.402;5.322;2023-03-01T09:21:52;13.00;;;9.83;;
11817;SDS011;5966;52.402;5.322;2023-03-01T09:24:23;12.63;;;9.47;;
11817;SDS011;5966;52.402;5.322;2023-03-01T09:26:54;15.20;;;9.53;;
11817;SDS011;5966;52.402;5.322;2023-03-01T09:29:22;14.30;;;11.10;;
11817;SDS011;5966;52.402;5.322;2023-03-01T09:31:52;13.80;;;10.87;;
11817;SDS011;5966;52.402;5.322;2023-03-01T09:34:22;15.23;;;10.67;;
11817;SDS011;5966;52.402;5.322;2023-03-01T09:36:50;14.80;;;9.67;;
11817;SDS011;5966;52.402;5.322;2023-03-01T09:39:18;13.77;;;10.87;;
11817;SDS011;5966;52.402;5.322;2023-03-01T09:41:48;16.33;;;11.73;;
11817;SDS011;5966;52.402;5.322;2023-03-01T09:44:24;16.87;;;11.83;;
11817;SDS011;5966;52.402;5.322;2023-03-01T09:46:59;16.60;;;11.77;;
11817;SDS011;5966;52.402;5.322;2023-03-01T09:49:29;15.40;;;11.60;;
11817;SDS011;5966;52.402;5.322;2023-03-01T09:52:01;17.33;;;11.50;;
11817;SDS011;5966;52.402;5.322;2023-03-01T09:54:36;15.47;;;11.30;;
11817;SDS011;5966;52.402;5.322;2023-03-01T09:57:12;17.43;;;11.57;;
11817;SDS011;5966;52.402;5.322;2023-03-01T09:59:58;20.10;;;13.27;;
11817;SDS011;5966;52.402;5.322;2023-03-01T10:02:37;16.13;;;11.63;;
11817;SDS011;5966;52.402;5.322;2023-03-01T10:05:12;15.13;;;11.73;;
11817;SDS011;5966;52.402;5.322;2023-03-01T10:07:58;16.40;;;12.30;;
11817;SDS011;5966;52.402;5.322;2023-03-01T10:10:42;17.30;;;12.67;;
11817;SDS011;5966;52.402;5.322;2023-03-01T10:13:14;16.03;;;12.63;;
11817;SDS011;5966;52.402;5.322;2023-03-01T10:15:49;23.13;;;12.77;;
11817;SDS011;5966;52.402;5.322;2023-03-01T10:18:24;18.80;;;12.40;;
11817;SDS011;5966;52.402;5.322;2023-03-01T10:20:55;15.47;;;11.40;;
11817;SDS011;5966;52.402;5.322;2023-03-01T10:23:26;13.77;;;10.27;;
11817;SDS011;5966;52.402;5.322;2023-03-01T10:25:59;13.13;;;10.20;;
11817;SDS011;5966;52.402;5.322;2023-03-01T10:28:39;12.43;;;9.87;;
11817;SDS011;5966;52.402;5.322;2023-03-01T10:31:15;10.57;;;7.20;;
11817;SDS011;5966;52.402;5.322;2023-03-01T10:33:46;10.30;;;7.47;;
11817;SDS011;5966;52.402;5.322;2023-03-01T10:36:19;7.97;;;6.07;;
11817;SDS011;5966;52.402;5.322;2023-03-01T10:38:48;7.70;;;5.90;;
11817;SDS011;5966;52.402;5.322;2023-03-01T10:41:20;8.93;;;6.30;;
11817;SDS011;5966;52.402;5.322;2023-03-01T10:43:51;8.37;;;6.50;;
11817;SDS011;5966;52.402;5.322;2023-03-01T10:46:26;8.40;;;6.33;;
11817;SDS011;5966;52.402;5.322;2023-03-01T10:49:05;10.50;;;6.43;;
11817;SDS011;5966;52.402;5.322;2023-03-01T10:51:42;7.43;;;5.70;;
11817;SDS011;5966;52.402;5.322;2023-03-01T10:54:16;7.63;;;5.67;;
11817;SDS011;5966;52.402;5.322;2023-03-01T10:56:46;7.17;;;5.30;;
11817;SDS011;5966;52.402;5.322;2023-03-01T10:59:20;7.67;;;5.23;;
11817;SDS011;5966;52.402;5.322;2023-03-01T11:02:14;7.17;;;5.23;;
11817;SDS011;5966;52.402;5.322;2023-03-01T11:04:58;6.80;;;4.80;;
11817;SDS011;5966;52.402;5.322;2023-03-01T11:07:27;6.57;;;4.47;;
11817;SDS011;5966;52.402;5.322;2023-03-01T11:09:56;5.70;;;4.80;;
11817;SDS011;5966;52.402;5.322;2023-03-01T11:12:24;7.80;;;4.50;;
11817;SDS011;5966;52.402;5.322;2023-03-01T11:14:55;7.13;;;5.30;;
11817;SDS011;5966;52.402;5.322;2023-03-01T11:17:26;5.30;;;4.37;;
11817;SDS011;5966;52.402;5.322;2023-03-01T11:20:06;5.00;;;4.20;;
11817;SDS011;5966;52.402;5.322;2023-03-01T11:22:47;5.13;;;4.50;;
11817;SDS011;5966;52.402;5.322;2023-03-01T11:25:19;4.67;;;4.17;;
11817;SDS011;5966;52.402;5.322;2023-03-01T11:27:51;5.67;;;3.90;;
11817;SDS011;5966;52.402;5.322;2023-03-01T11:30:23;4.43;;;3.80;;
11817;SDS011;5966;52.402;5.322;2023-03-01T11:33:08;6.93;;;4.20;;
11817;SDS011;5966;52.402;5.322;2023-03-01T11:35:45;6.33;;;4.00;;
11817;SDS011;5966;52.402;5.322;2023-03-01T11:38:21;6.37;;;4.10;;
11817;SDS011;5966;52.402;5.322;2023-03-01T11:40:52;6.33;;;4.37;;
11817;SDS011;5966;52.402;5.322;2023-03-01T11:43:31;6.93;;;4.13;;
11817;SDS011;5966;52.402;5.322;2023-03-01T11:49:11;5.93;;;4.40;;
11817;SDS011;5966;52.402;5.322;2023-03-01T11:51:59;6.47;;;4.80;;
11817;SDS011;5966;52.402;5.322;2023-03-01T11:54:39;6.13;;;4.23;;
11817;SDS011;5966;52.402;5.322;2023-03-01T11:57:28;7.87;;;4.57;;
11817;SDS011;5966;52.402;5.322;2023-03-01T12:00:19;6.90;;;5.07;;
11817;SDS011;5966;52.402;5.322;2023-03-01T12:03:02;7.57;;;4.77;;
11817;SDS011;5966;52.402;5.322;2023-03-01T12:05:52;5.70;;;4.97;;
11817;SDS011;5966;52.402;5.322;2023-03-01T12:08:41;9.17;;;4.93;;
11817;SDS011;5966;52.402;5.322;2023-03-01T12:11:17;7.90;;;5.20;;
11817;SDS011;5966;52.402;5.322;2023-03-01T12:20:02;6.53;;;5.10;;
11817;SDS011;5966;52.402;5.322;2023-03-01T12:22:46;6.63;;;5.50;;
11817;SDS011;5966;52.402;5.322;2023-03-01T12:25:40;8.27;;;5.97;;
11817;SDS011;5966;52.402;5.322;2023-03-01T12:31:29;8.40;;;5.77;;
11817;SDS011;5966;52.402;5.322;2023-03-01T12:34:24;6.37;;;5.23;;
11817;SDS011;5966;52.402;5.322;2023-03-01T12:37:24;5.30;;;4.80;;
11817;SDS011;5966;52.402;5.322;2023-03-01T12:43:10;7.03;;;5.00;;
11817;SDS011;5966;52.402;5.322;2023-03-01T12:45:52;7.73;;;5.03;;
11817;SDS011;5966;52.402;5.322;2023-03-01T12:48:39;6.57;;;4.97;;
11817;SDS011;5966;52.402;5.322;2023-03-01T12:51:19;5.83;;;4.63;;
11817;SDS011;5966;52.402;5.322;2023-03-01T12:53:52;5.27;;;4.17;;
11817;SDS011;5966;52.402;5.322;2023-03-01T12:56:24;6.57;;;4.43;;
11817;SDS011;5966;52.402;5.322;2023-03-01T12:59:45;5.53;;;4.60;;
11817;SDS011;5966;52.402;5.322;2023-03-01T13:02:30;6.83;;;4.77;;
11817;SDS011;5966;52.402;5.322;2023-03-01T13:05:10;7.60;;;5.00;;
11817;SDS011;5966;52.402;5.322;2023-03-01T13:07:58;7.30;;;4.30;;
11817;SDS011;5966;52.402;5.322;2023-03-01T13:10:39;6.33;;;4.93;;
11817;SDS011;5966;52.402;5.322;2023-03-01T13:13:20;7.00;;;4.23;;
11817;SDS011;5966;52.402;5.322;2023-03-01T13:15:51;5.13;;;4.23;;
11817;SDS011;5966;52.402;5.322;2023-03-01T13:18:31;5.73;;;4.63;;
11817;SDS011;5966;52.402;5.322;2023-03-01T13:21:04;9.37;;;5.10;;
11817;SDS011;5966;52.402;5.322;2023-03-01T13:23:58;5.80;;;4.33;;
11817;SDS011;5966;52.402;5.322;2023-03-01T13:39:28;5.27;;;4.17;;
11817;SDS011;5966;52.402;5.322;2023-03-01T13:42:02;6.53;;;4.83;;
11817;SDS011;5966;52.402;5.322;2023-03-01T13:47:35;6.43;;;4.97;;
11817;SDS011;5966;52.402;5.322;2023-03-01T13:53:11;5.83;;;4.90;;
11817;SDS011;5966;52.402;5.322;2023-03-01T13:55:48;5.83;;;4.67;;
11817;SDS011;5966;52.402;5.322;2023-03-01T14:01:20;5.87;;;4.57;;
11817;SDS011;5966;52.402;5.322;2023-03-01T14:04:33;6.80;;;4.93;;
11817;SDS011;5966;52.402;5.322;2023-03-01T14:07:17;6.03;;;4.33;;
11817;SDS011;5966;52.402;5.322;2023-03-01T14:09:51;5.47;;;4.60;;
11817;SDS011;5966;52.402;5.322;2023-03-01T14:15:19;6.07;;;4.60;;
11817;SDS011;5966;52.402;5.322;2023-03-01T14:18:41;7.20;;;4.90;;
11817;SDS011;5966;52.402;5.322;2023-03-01T14:21:33;5.70;;;4.43;;
11817;SDS011;5966;52.402;5.322;2023-03-01T14:41:21;5.77;;;4.10;;
11817;SDS011;5966;52.402;5.322;2023-03-01T14:49:33;7.73;;;4.83;;
11817;SDS011;5966;52.402;5.322;2023-03-01T14:55:00;5.30;;;4.50;;
11817;SDS011;5966;52.402;5.322;2023-03-01T15:13:42;6.17;;;4.00;;
11817;SDS011;5966;52.402;5.322;2023-03-01T15:16:39;8.57;;;4.43;;
11817;SDS011;5966;52.402;5.322;2023-03-01T15:22:44;5.03;;;4.13;;
11817;SDS011;5966;52.402;5.322;2023-03-01T15:31:27;4.43;;;3.80;;
11817;SDS011;5966;52.402;5.322;2023-03-01T15:34:21;4.73;;;3.83;;
11817;SDS011;5966;52.402;5.322;2023-03-01T15:37:01;7.20;;;3.73;;
11817;SDS011;5966;52.402;5.322;2023-03-01T15:39:46;5.47;;;4.00;;
11817;SDS011;5966;52.402;5.322;2023-03-01T15:45:55;5.17;;;3.97;;
11817;SDS011;5966;52.402;5.322;2023-03-01T15:48:53;4.07;;;3.67;;
11817;SDS011;5966;52.402;5.322;2023-03-01T15:51:53;6.70;;;4.53;;
11817;SDS011;5966;52.402;5.322;2023-03-01T15:54:28;5.70;;;4.23;;
11817;SDS011;5966;52.402;5.322;2023-03-01T15:57:07;8.53;;;3.70;;
11817;SDS011;5966;52.402;5.322;2023-03-01T15:59:46;5.63;;;4.20;;
11817;SDS011;5966;52.402;5.322;2023-03-01T16:02:38;4.97;;;4.10;;
11817;SDS011;5966;52.402;5.322;2023-03-01T16:05:34;7.07;;;4.50;;
11817;SDS011;5966;52.402;5.322;2023-03-01T16:08:22;5.13;;;4.07;;
11817;SDS011;5966;52.402;5.322;2023-03-01T16:14:26;5.70;;;4.50;;
11817;SDS011;5966;52.402;5.322;2023-03-01T16:16:57;6.83;;;3.93;;
11817;SDS011;5966;52.402;5.322;2023-03-01T16:19:39;5.70;;;4.20;;
11817;SDS011;5966;52.402;5.322;2023-03-01T16:22:11;4.37;;;3.90;;
11817;SDS011;5966;52.402;5.322;2023-03-01T16:24:52;5.70;;;4.10;;
11817;SDS011;5966;52.402;5.322;2023-03-01T16:27:49;6.97;;;4.43;;
11817;SDS011;5966;52.402;5.322;2023-03-01T16:30:20;6.10;;;3.90;;
11817;SDS011;5966;52.402;5.322;2023-03-01T16:32:53;6.43;;;4.13;;
11817;SDS011;5966;52.402;5.322;2023-03-01T16:35:31;5.00;;;3.93;;
11817;SDS011;5966;52.402;5.322;2023-03-01T16:38:05;4.60;;;4.10;;
11817;SDS011;5966;52.402;5.322;2023-03-01T16:40:39;5.47;;;4.13;;
11817;SDS011;5966;52.402;5.322;2023-03-01T16:45:42;6.00;;;4.43;;
11817;SDS011;5966;52.402;5.322;2023-03-01T16:48:14;9.97;;;4.90;;
11817;SDS011;5966;52.402;5.322;2023-03-01T16:50:43;4.87;;;4.07;;
11817;SDS011;5966;52.402;5.322;2023-03-01T16:53:17;7.10;;;4.27;;
11817;SDS011;5966;52.402;5.322;2023-03-01T16:55:52;5.80;;;4.17;;
11817;SDS011;5966;52.402;5.322;2023-03-01T16:58:23;5.87;;;4.20;;
11817;SDS011;5966;52.402;5.322;2023-03-01T17:00:53;5.53;;;4.40;;
11817;SDS011;5966;52.402;5.322;2023-03-01T17:03:25;6.90;;;4.70;;
11817;SDS011;5966;52.402;5.322;2023-03-01T17:05:55;6.03;;;4.20;;
11817;SDS011;5966;52.402;5.322;2023-03-01T17:08:31;6.23;;;4.80;;
11817;SDS011;5966;52.402;5.322;2023-03-01T17:11:18;6.73;;;4.60;;
11817;SDS011;5966;52.402;5.322;2023-03-01T17:13:48;7.20;;;4.83;;
11817;SDS011;5966;52.402;5.322;2023-03-01T17:18:59;6.07;;;4.10;;